• Join FlightAware (Why Join?)
  • Login
  • US Flag 
01:01PM EDT


 

Airport Tracker/Info


-or-


 

Live Flight TrackerFlight Track Log ✈ N587UA ✈ 08-May-2012 ✈ KDCA - KORD

Flight Track Log - Related Links

Times and Time Zones

All times are in EDT time to prevent confusion due to time zone crossing. See the N587UA flight status page for this flight to view local times or setup timezone preferences in your user account.

Time Position Orientation Groundspeed Altitude Reporting Facility
EDT Latitude Longitude Course Direction KTS MPH feet Rate Location/Type
06:49PM 38.8528 -77.1028 124° Southeast  Level FlightAware Approximate
06:49PM 38.8167 -77.0333 276° West 156 180 1,500  Level Potomac TRACON
06:54PM 38.8419 -77.3694 292° West 320 368 14,100 2,640 Climbing Washington Center
06:55PM 38.8797 -77.4903 293° West 350 403 16,600 1,380 Climbing Washington Center
06:56PM 38.9233 -77.6247 281° West 378 435 17,000 300 Climbing Washington Center
06:57PM 38.9439 -77.7561 273° West 378 435 17,300 600 Climbing Washington Center
06:58PM 38.9497 -77.8897 272° West 371 427 18,300 840 Climbing Washington Center
06:59PM 38.9536 -78.0208 272° West 371 427 19,000 300 Climbing Washington Center
07:00PM 38.9569 -78.1542 272° West 371 427 19,000 1,140 Level Washington Center
07:01PM 38.9606 -78.2772 273° West 377 434 21,300 2,220 Climbing Washington Center
07:02PM 38.9658 -78.4136 272° West 383 441 23,500 2,100 Climbing Washington Center
07:03PM 38.9686 -78.5525 272° West 394 453 25,600 1,980 Climbing Washington Center
07:04PM 38.9733 -78.7022 272° West 409 471 27,500 1,680 Climbing Washington Center
07:05PM 38.9775 -78.8519 271° West 414 476 29,000 1,620 Climbing Washington Center
07:06PM 38.9797 -79.0044 271° West 425 489 30,800 1,980 Climbing Washington Center
07:07PM 38.9814 -79.1592 273° West 430 495 33,000 1,560 Climbing Washington Center
07:08PM 38.9875 -79.3064 271° West 425 489 34,000 480 Climbing Washington Center
07:09PM 38.9889 -79.4533 275° West 420 483 34,000  Level Washington Center
07:10PM 39.0003 -79.6197 271° West 428 493 34,000  Level Washington Center
07:11PM 39.0014 -79.7692 271° West 428 493 34,000  Level Washington Center
07:13PM 39.0036 -80.0294 271° West 433 498 34,000  Level Indianapolis Center
07:14PM 39.0058 -80.1711 272° West 421 484 34,000  Level Indianapolis Center
07:15PM 39.0100 -80.3206 288° West 415 478 34,000  Level Indianapolis Center
07:16PM 39.0450 -80.4633 301° West 415 478 34,000  Level Indianapolis Center
07:17PM 39.1069 -80.5972 300° West 421 484 34,000  Level Indianapolis Center
07:18PM 39.1667 -80.7314 300° West 426 490 34,000  Level Indianapolis Center
07:19PM 39.2258 -80.8631 299° West 426 490 34,000 -540 Level Indianapolis Center
07:20PM 39.2831 -80.9950 299° West 426 490 33,000 -960 Descending Indianapolis Center
07:21PM 39.3400 -81.1272 299° West 426 490 32,100 -960 Descending Indianapolis Center
07:22PM 39.3969 -81.2625 300° West 426 490 31,100 -1,080 Descending Indianapolis Center
07:23PM 39.4558 -81.3922 298° West 426 490 30,000 -1,020 Descending Indianapolis Center
07:24PM 39.5125 -81.5306 299° West 426 490 29,100 -900 Descending Indianapolis Center
07:25PM 39.5689 -81.6608 300° West 426 490 28,200 -960 Descending Indianapolis Center
07:26PM 39.6272 -81.7942 297° West 426 490 27,200 -840 Descending Indianapolis Center
07:27PM 39.6811 -81.9303 298° West 426 490 26,600 -660 Descending Indianapolis Center
07:28PM 39.7394 -82.0747 300° West 426 490 25,900 -300 Descending Indianapolis Center
07:29PM 39.7972 -82.2058 299° West 426 490 26,000  Climbing Indianapolis Center
07:30PM 39.8531 -82.3375 299° West 421 484 26,000  Level Indianapolis Center
07:31PM 39.9083 -82.4689 298° West 421 484 26,000  Level Indianapolis Center
07:32PM 39.9617 -82.6008 299° West 413 475 26,000  Level Indianapolis Center
07:33PM 40.0169 -82.7303 298° West 413 475 26,000  Level Indianapolis Center
07:34PM 40.0633 -82.8464 298° West 413 475 26,000  Level Indianapolis Center
07:35PM 40.1164 -82.9761 299° West 408 470 26,000  Level Indianapolis Center
07:36PM 40.1711 -83.1033 297° West 408 470 26,000  Level Indianapolis Center
07:37PM 40.2214 -83.2336 298° West 408 470 26,000  Level Indianapolis Center
07:38PM 40.2739 -83.3611 297° West 408 470 26,000  Level Indianapolis Center
07:39PM 40.3239 -83.4917 297° West 403 464 26,000  Level Indianapolis Center
07:40PM 40.3739 -83.6225 298° West 403 464 26,000  Level Indianapolis Center
07:41PM 40.4239 -83.7478 297° West 398 458 26,000  Level Indianapolis Center
07:42PM 40.4839 -83.9036 298° West 398 458 26,000  Level Indianapolis Center
07:45PM 40.6111 -84.2208 297° West 388 447 26,000  Level Chicago Center
07:46PM 40.6606 -84.3511 296° West 394 453 26,000  Level Chicago Center
07:47PM 40.7244 -84.5217 298° West 394 453 26,000  Level Chicago Center
07:48PM 40.7708 -84.6389 295° West 402 463 26,000  Level Chicago Center
07:49PM 40.8181 -84.7700 296° West 397 457 26,000  Level Chicago Center
07:50PM 40.8669 -84.9014 297° West 397 457 26,000  Level Chicago Center
07:51PM 40.9158 -85.0300 296° West 388 447 26,000  Level Chicago Center
07:52PM 40.9622 -85.1589 297° West 398 458 26,000  Level Chicago Center
07:53PM 41.0108 -85.2881 297° West 393 452 26,000  Level Chicago Center
07:54PM 41.0589 -85.4117 296° West 393 452 26,000 -360 Level Chicago Center
07:55PM 41.1050 -85.5386 297° West 383 441 25,300 -540 Descending Chicago Center
07:56PM 41.1550 -85.6708 295° West 388 447 25,000 -180 Descending Chicago Center
07:57PM 41.2056 -85.8169 295° West 394 453 25,000  Level Chicago Center
07:58PM 41.2467 -85.9336 296° West 381 438 25,000 -300 Level Chicago Center
07:59PM 41.2853 -86.0392 279° West 369 425 24,400 -1,320 Descending Chicago Center
08:00PM 41.2992 -86.1575 279° West 349 402 22,400 -2,100 Descending Chicago Center
08:01PM 41.3128 -86.2756 279° West 322 371 20,200 -2,040 Descending Chicago Center
08:02PM 41.3261 -86.3911 299° West 327 376 18,400 -1,980 Descending Chicago Center
08:03PM 41.3706 -86.5000 307° West 343 395 16,300 -2,100 Descending Chicago Center
08:04PM 41.4294 -86.6025 309° West 348 400 14,300 -1,920 Descending Chicago Center
08:05PM 41.4881 -86.6997 313° West 348 400 12,500 -1,080 Descending Chicago Center
08:06PM 41.5483 -86.7861 355° North 338 389 12,000 -240 Descending Chicago Center
08:07PM 41.6800 -86.8003 353° North 367 422 12,000  Level Chicago Center
08:08PM 41.7742 -86.8161 348° North 361 415 12,000  Level Chicago Center
08:09PM 41.8708 -86.8431 311° West 356 410 12,000 -360 Level Chicago Center
08:10PM 41.9289 -86.9328 300° West 338 389 11,300 -1,020 Descending Chicago Center
08:11PM 41.9728 -87.0344 277° West 331 381 10,000 -720 Descending Chicago Center
08:12PM 41.9833 -87.1431 268° West 307 353 9,900 -720 Descending Chicago Center
08:13PM 41.9808 -87.2381 271° West 284 327 8,600 -1,200 Descending Chicago Center
08:14PM 41.9825 -87.3331 271° West 265 305 7,600 -840 Descending Chicago Center
08:15PM 41.9833 -87.4167 270° West 251 289 7,000 -540 Descending Chicago TRACON
08:16PM 41.9833 -87.5167 270° West 208 239 6,500 -660 Descending Chicago TRACON
08:17PM 41.9833 -87.5833 270° West 174 200 5,700 -960 Descending Chicago TRACON
08:18PM 41.9833 -87.6500 270° West 169 194 4,500 -1,140 Descending Chicago TRACON
08:19PM 41.9833 -87.7000 270° West 170 196 3,500 -1,140 Descending Chicago TRACON